sensor_id;sensor_type;location;lat;lon;timestamp;P1;durP1;ratioP1;P2;durP2;ratioP2
17614;SDS011;8926;49.720;6.576;2023-07-20T00:00:25;1.30;;;1.20;;
17614;SDS011;8926;49.720;6.576;2023-07-20T00:02:50;1.27;;;1.17;;
17614;SDS011;8926;49.720;6.576;2023-07-20T00:05:16;0.90;;;0.90;;
17614;SDS011;8926;49.720;6.576;2023-07-20T00:07:46;0.70;;;0.70;;
17614;SDS011;8926;49.720;6.576;2023-07-20T00:10:11;0.83;;;0.83;;
17614;SDS011;8926;49.720;6.576;2023-07-20T00:12:37;1.00;;;1.00;;
17614;SDS011;8926;49.720;6.576;2023-07-20T00:15:02;1.40;;;1.30;;
17614;SDS011;8926;49.720;6.576;2023-07-20T00:17:28;1.10;;;1.10;;
17614;SDS011;8926;49.720;6.576;2023-07-20T00:19:53;1.40;;;1.30;;
17614;SDS011;8926;49.720;6.576;2023-07-20T00:22:18;1.50;;;1.40;;
17614;SDS011;8926;49.720;6.576;2023-07-20T00:24:43;1.07;;;1.07;;
17614;SDS011;8926;49.720;6.576;2023-07-20T00:27:09;1.40;;;1.30;;
17614;SDS011;8926;49.720;6.576;2023-07-20T00:29:34;1.17;;;1.07;;
17614;SDS011;8926;49.720;6.576;2023-07-20T00:32:00;1.20;;;1.10;;
17614;SDS011;8926;49.720;6.576;2023-07-20T00:34:26;0.97;;;0.97;;
17614;SDS011;8926;49.720;6.576;2023-07-20T00:36:51;1.00;;;0.90;;
17614;SDS011;8926;49.720;6.576;2023-07-20T00:39:16;2.00;;;1.00;;
17614;SDS011;8926;49.720;6.576;2023-07-20T00:41:42;0.80;;;0.80;;
17614;SDS011;8926;49.720;6.576;2023-07-20T00:44:07;0.90;;;0.90;;
17614;SDS011;8926;49.720;6.576;2023-07-20T00:46:32;0.93;;;0.93;;
17614;SDS011;8926;49.720;6.576;2023-07-20T00:48:58;0.90;;;0.90;;
17614;SDS011;8926;49.720;6.576;2023-07-20T00:51:24;1.13;;;1.03;;
17614;SDS011;8926;49.720;6.576;2023-07-20T00:53:51;1.10;;;1.03;;
17614;SDS011;8926;49.720;6.576;2023-07-20T00:56:17;0.80;;;0.80;;
17614;SDS011;8926;49.720;6.576;2023-07-20T00:58:43;0.90;;;0.90;;
17614;SDS011;8926;49.720;6.576;2023-07-20T01:01:09;1.30;;;1.10;;
17614;SDS011;8926;49.720;6.576;2023-07-20T01:03:34;1.40;;;1.30;;
17614;SDS011;8926;49.720;6.576;2023-07-20T01:06:44;1.20;;;1.10;;
17614;SDS011;8926;49.720;6.576;2023-07-20T01:11:40;1.00;;;1.00;;
17614;SDS011;8926;49.720;6.576;2023-07-20T01:14:11;1.10;;;1.10;;
17614;SDS011;8926;49.720;6.576;2023-07-20T01:16:37;0.90;;;0.90;;
17614;SDS011;8926;49.720;6.576;2023-07-20T01:19:02;1.13;;;1.07;;
17614;SDS011;8926;49.720;6.576;2023-07-20T01:21:31;0.90;;;0.90;;
17614;SDS011;8926;49.720;6.576;2023-07-20T01:32:13;0.83;;;0.83;;
17614;SDS011;8926;49.720;6.576;2023-07-20T01:34:42;1.10;;;1.00;;
17614;SDS011;8926;49.720;6.576;2023-07-20T01:37:09;0.90;;;0.90;;
17614;SDS011;8926;49.720;6.576;2023-07-20T01:39:36;1.00;;;0.97;;
17614;SDS011;8926;49.720;6.576;2023-07-20T01:42:04;1.00;;;1.00;;
17614;SDS011;8926;49.720;6.576;2023-07-20T01:44:29;1.00;;;1.00;;
17614;SDS011;8926;49.720;6.576;2023-07-20T01:46:55;1.00;;;1.00;;
17614;SDS011;8926;49.720;6.576;2023-07-20T01:49:20;1.27;;;1.17;;
17614;SDS011;8926;49.720;6.576;2023-07-20T01:51:45;1.00;;;1.00;;
17614;SDS011;8926;49.720;6.576;2023-07-20T01:54:11;1.27;;;1.17;;
17614;SDS011;8926;49.720;6.576;2023-07-20T01:56:36;1.37;;;1.27;;
17614;SDS011;8926;49.720;6.576;2023-07-20T01:59:01;1.03;;;1.03;;
17614;SDS011;8926;49.720;6.576;2023-07-20T02:01:26;1.00;;;1.00;;
17614;SDS011;8926;49.720;6.576;2023-07-20T02:03:53;1.37;;;1.30;;
17614;SDS011;8926;49.720;6.576;2023-07-20T02:06:19;1.30;;;1.20;;
17614;SDS011;8926;49.720;6.576;2023-07-20T02:08:45;1.30;;;1.20;;
17614;SDS011;8926;49.720;6.576;2023-07-20T02:11:10;1.33;;;1.23;;
17614;SDS011;8926;49.720;6.576;2023-07-20T02:13:36;1.10;;;1.10;;
17614;SDS011;8926;49.720;6.576;2023-07-20T02:16:01;1.20;;;1.10;;
17614;SDS011;8926;49.720;6.576;2023-07-20T02:18:26;1.20;;;1.10;;
17614;SDS011;8926;49.720;6.576;2023-07-20T02:20:52;1.30;;;1.20;;
17614;SDS011;8926;49.720;6.576;2023-07-20T02:23:19;1.33;;;1.10;;
17614;SDS011;8926;49.720;6.576;2023-07-20T02:25:44;1.37;;;1.27;;
17614;SDS011;8926;49.720;6.576;2023-07-20T02:28:11;1.50;;;1.40;;
17614;SDS011;8926;49.720;6.576;2023-07-20T02:30:38;1.27;;;1.17;;
17614;SDS011;8926;49.720;6.576;2023-07-20T02:33:04;1.17;;;1.17;;
17614;SDS011;8926;49.720;6.576;2023-07-20T02:35:30;1.30;;;1.20;;
17614;SDS011;8926;49.720;6.576;2023-07-20T02:37:55;1.10;;;1.10;;
17614;SDS011;8926;49.720;6.576;2023-07-20T02:40:20;1.10;;;1.10;;
17614;SDS011;8926;49.720;6.576;2023-07-20T02:42:46;1.13;;;1.13;;
17614;SDS011;8926;49.720;6.576;2023-07-20T02:45:11;1.30;;;1.20;;
17614;SDS011;8926;49.720;6.576;2023-07-20T02:47:37;1.37;;;1.27;;
17614;SDS011;8926;49.720;6.576;2023-07-20T02:50:02;1.13;;;1.10;;
17614;SDS011;8926;49.720;6.576;2023-07-20T02:52:28;1.30;;;1.30;;
17614;SDS011;8926;49.720;6.576;2023-07-20T02:54:54;1.20;;;1.10;;
17614;SDS011;8926;49.720;6.576;2023-07-20T02:57:20;1.03;;;1.03;;
17614;SDS011;8926;49.720;6.576;2023-07-20T02:59:45;1.50;;;1.40;;
17614;SDS011;8926;49.720;6.576;2023-07-20T03:02:11;1.70;;;1.60;;
17614;SDS011;8926;49.720;6.576;2023-07-20T03:04:36;1.23;;;1.10;;
17614;SDS011;8926;49.720;6.576;2023-07-20T03:07:03;1.10;;;1.10;;
17614;SDS011;8926;49.720;6.576;2023-07-20T03:09:29;1.53;;;1.30;;
17614;SDS011;8926;49.720;6.576;2023-07-20T03:11:55;1.33;;;1.30;;
17614;SDS011;8926;49.720;6.576;2023-07-20T03:14:20;2.97;;;1.40;;
17614;SDS011;8926;49.720;6.576;2023-07-20T03:16:45;1.27;;;1.17;;
17614;SDS011;8926;49.720;6.576;2023-07-20T03:19:11;1.53;;;1.43;;
17614;SDS011;8926;49.720;6.576;2023-07-20T03:21:36;1.60;;;1.50;;
17614;SDS011;8926;49.720;6.576;2023-07-20T03:24:06;1.77;;;1.57;;
17614;SDS011;8926;49.720;6.576;2023-07-20T03:26:32;1.10;;;1.10;;
17614;SDS011;8926;49.720;6.576;2023-07-20T03:28:57;1.60;;;1.50;;
17614;SDS011;8926;49.720;6.576;2023-07-20T03:31:22;1.37;;;1.27;;
17614;SDS011;8926;49.720;6.576;2023-07-20T03:33:48;1.57;;;1.47;;
17614;SDS011;8926;49.720;6.576;2023-07-20T03:36:13;1.20;;;1.10;;
17614;SDS011;8926;49.720;6.576;2023-07-20T03:38:38;1.10;;;1.10;;
17614;SDS011;8926;49.720;6.576;2023-07-20T03:41:04;1.40;;;1.30;;
17614;SDS011;8926;49.720;6.576;2023-07-20T03:43:29;1.10;;;1.10;;
17614;SDS011;8926;49.720;6.576;2023-07-20T03:45:55;1.60;;;1.50;;
17614;SDS011;8926;49.720;6.576;2023-07-20T03:48:22;1.40;;;1.30;;
17614;SDS011;8926;49.720;6.576;2023-07-20T03:50:49;1.23;;;1.13;;
17614;SDS011;8926;49.720;6.576;2023-07-20T03:53:16;1.20;;;1.20;;
17614;SDS011;8926;49.720;6.576;2023-07-20T03:55:49;1.10;;;1.10;;
17614;SDS011;8926;49.720;6.576;2023-07-20T03:58:16;1.60;;;1.20;;
17614;SDS011;8926;49.720;6.576;2023-07-20T04:00:44;1.30;;;1.20;;
17614;SDS011;8926;49.720;6.576;2023-07-20T04:03:13;1.53;;;1.40;;
17614;SDS011;8926;49.720;6.576;2023-07-20T04:05:39;1.33;;;1.27;;
17614;SDS011;8926;49.720;6.576;2023-07-20T04:08:05;2.80;;;1.60;;
17614;SDS011;8926;49.720;6.576;2023-07-20T04:10:30;1.33;;;1.30;;
17614;SDS011;8926;49.720;6.576;2023-07-20T04:12:55;1.20;;;1.10;;
17614;SDS011;8926;49.720;6.576;2023-07-20T04:15:21;1.00;;;1.00;;
17614;SDS011;8926;49.720;6.576;2023-07-20T04:17:46;1.13;;;1.03;;
17614;SDS011;8926;49.720;6.576;2023-07-20T04:20:11;1.40;;;1.30;;
17614;SDS011;8926;49.720;6.576;2023-07-20T04:22:37;2.10;;;1.53;;
17614;SDS011;8926;49.720;6.576;2023-07-20T04:25:03;2.13;;;2.03;;
17614;SDS011;8926;49.720;6.576;2023-07-20T04:27:29;1.60;;;1.50;;
17614;SDS011;8926;49.720;6.576;2023-07-20T04:29:54;1.67;;;1.57;;
17614;SDS011;8926;49.720;6.576;2023-07-20T04:32:19;1.70;;;1.60;;
17614;SDS011;8926;49.720;6.576;2023-07-20T04:34:44;1.67;;;1.53;;
17614;SDS011;8926;49.720;6.576;2023-07-20T04:37:10;1.70;;;1.60;;
17614;SDS011;8926;49.720;6.576;2023-07-20T04:39:35;1.90;;;1.70;;
17614;SDS011;8926;49.720;6.576;2023-07-20T04:42:00;3.60;;;2.63;;
17614;SDS011;8926;49.720;6.576;2023-07-20T04:44:26;2.40;;;2.17;;
17614;SDS011;8926;49.720;6.576;2023-07-20T04:46:51;2.57;;;2.37;;
17614;SDS011;8926;49.720;6.576;2023-07-20T04:49:16;2.20;;;2.00;;
17614;SDS011;8926;49.720;6.576;2023-07-20T04:51:41;1.77;;;1.67;;
17614;SDS011;8926;49.720;6.576;2023-07-20T04:54:07;1.43;;;1.33;;
17614;SDS011;8926;49.720;6.576;2023-07-20T04:56:32;1.70;;;1.60;;
17614;SDS011;8926;49.720;6.576;2023-07-20T04:58:58;1.37;;;1.27;;
17614;SDS011;8926;49.720;6.576;2023-07-20T05:01:23;1.10;;;1.10;;
17614;SDS011;8926;49.720;6.576;2023-07-20T05:03:49;1.20;;;1.10;;
17614;SDS011;8926;49.720;6.576;2023-07-20T05:06:14;1.10;;;1.00;;
17614;SDS011;8926;49.720;6.576;2023-07-20T05:08:39;2.13;;;1.40;;
17614;SDS011;8926;49.720;6.576;2023-07-20T05:11:05;1.30;;;1.13;;
17614;SDS011;8926;49.720;6.576;2023-07-20T05:13:30;1.13;;;1.00;;
17614;SDS011;8926;49.720;6.576;2023-07-20T05:15:56;1.40;;;1.30;;
17614;SDS011;8926;49.720;6.576;2023-07-20T05:18:21;1.40;;;1.30;;
17614;SDS011;8926;49.720;6.576;2023-07-20T05:20:47;1.10;;;1.10;;
17614;SDS011;8926;49.720;6.576;2023-07-20T05:23:13;1.60;;;1.50;;
17614;SDS011;8926;49.720;6.576;2023-07-20T05:25:38;1.87;;;1.67;;
17614;SDS011;8926;49.720;6.576;2023-07-20T05:28:03;2.20;;;2.00;;
17614;SDS011;8926;49.720;6.576;2023-07-20T05:30:29;2.40;;;2.07;;
17614;SDS011;8926;49.720;6.576;2023-07-20T05:32:54;2.03;;;1.83;;
17614;SDS011;8926;49.720;6.576;2023-07-20T05:35:20;3.37;;;2.27;;
17614;SDS011;8926;49.720;6.576;2023-07-20T05:37:45;3.00;;;2.13;;
17614;SDS011;8926;49.720;6.576;2023-07-20T05:40:11;1.90;;;1.53;;
17614;SDS011;8926;49.720;6.576;2023-07-20T05:42:37;2.13;;;1.93;;
17614;SDS011;8926;49.720;6.576;2023-07-20T05:45:05;2.10;;;1.90;;
17614;SDS011;8926;49.720;6.576;2023-07-20T05:47:31;1.87;;;1.63;;
17614;SDS011;8926;49.720;6.576;2023-07-20T05:49:57;2.00;;;1.87;;
17614;SDS011;8926;49.720;6.576;2023-07-20T05:52:22;1.77;;;1.67;;
17614;SDS011;8926;49.720;6.576;2023-07-20T05:54:47;1.60;;;1.50;;
17614;SDS011;8926;49.720;6.576;2023-07-20T05:57:13;1.47;;;1.37;;
17614;SDS011;8926;49.720;6.576;2023-07-20T05:59:38;2.67;;;1.83;;
17614;SDS011;8926;49.720;6.576;2023-07-20T06:02:05;2.57;;;2.13;;
17614;SDS011;8926;49.720;6.576;2023-07-20T06:04:31;1.93;;;1.83;;
17614;SDS011;8926;49.720;6.576;2023-07-20T06:06:57;2.10;;;2.00;;
17614;SDS011;8926;49.720;6.576;2023-07-20T06:09:22;2.90;;;1.80;;
17614;SDS011;8926;49.720;6.576;2023-07-20T06:11:47;1.87;;;1.30;;
17614;SDS011;8926;49.720;6.576;2023-07-20T06:14:12;3.57;;;2.17;;
17614;SDS011;8926;49.720;6.576;2023-07-20T06:16:38;1.60;;;1.50;;
17614;SDS011;8926;49.720;6.576;2023-07-20T06:19:03;2.63;;;2.03;;
17614;SDS011;8926;49.720;6.576;2023-07-20T06:21:28;2.00;;;1.80;;
17614;SDS011;8926;49.720;6.576;2023-07-20T06:23:54;1.70;;;1.60;;
17614;SDS011;8926;49.720;6.576;2023-07-20T06:26:19;2.57;;;1.60;;
17614;SDS011;8926;49.720;6.576;2023-07-20T06:28:45;1.80;;;1.70;;
17614;SDS011;8926;49.720;6.576;2023-07-20T06:31:11;2.27;;;1.30;;
17614;SDS011;8926;49.720;6.576;2023-07-20T06:33:36;1.40;;;1.30;;
17614;SDS011;8926;49.720;6.576;2023-07-20T06:36:02;1.70;;;1.40;;
17614;SDS011;8926;49.720;6.576;2023-07-20T06:38:27;1.47;;;1.17;;
17614;SDS011;8926;49.720;6.576;2023-07-20T06:40:54;2.10;;;1.70;;
17614;SDS011;8926;49.720;6.576;2023-07-20T06:43:19;2.10;;;1.60;;
17614;SDS011;8926;49.720;6.576;2023-07-20T06:45:45;2.00;;;1.60;;
17614;SDS011;8926;49.720;6.576;2023-07-20T06:48:16;1.30;;;1.17;;
17614;SDS011;8926;49.720;6.576;2023-07-20T06:50:42;1.63;;;1.00;;
17614;SDS011;8926;49.720;6.576;2023-07-20T06:53:08;1.57;;;1.47;;
17614;SDS011;8926;49.720;6.576;2023-07-20T06:55:33;1.50;;;1.40;;
17614;SDS011;8926;49.720;6.576;2023-07-20T06:57:58;1.40;;;1.30;;
17614;SDS011;8926;49.720;6.576;2023-07-20T07:00:24;1.77;;;1.40;;
17614;SDS011;8926;49.720;6.576;2023-07-20T07:02:49;1.30;;;1.20;;
17614;SDS011;8926;49.720;6.576;2023-07-20T07:05:14;2.60;;;1.50;;
17614;SDS011;8926;49.720;6.576;2023-07-20T07:07:40;1.13;;;1.13;;
17614;SDS011;8926;49.720;6.576;2023-07-20T07:10:06;1.27;;;1.20;;
17614;SDS011;8926;49.720;6.576;2023-07-20T07:12:32;1.67;;;1.30;;
17614;SDS011;8926;49.720;6.576;2023-07-20T07:14:57;2.10;;;1.73;;
17614;SDS011;8926;49.720;6.576;2023-07-20T07:17:23;1.40;;;1.30;;
17614;SDS011;8926;49.720;6.576;2023-07-20T07:19:48;1.20;;;1.10;;
17614;SDS011;8926;49.720;6.576;2023-07-20T07:22:14;1.20;;;1.10;;
17614;SDS011;8926;49.720;6.576;2023-07-20T07:24:39;1.33;;;1.27;;
17614;SDS011;8926;49.720;6.576;2023-07-20T07:27:06;2.47;;;1.77;;
17614;SDS011;8926;49.720;6.576;2023-07-20T07:29:33;1.40;;;1.30;;
17614;SDS011;8926;49.720;6.576;2023-07-20T07:31:58;1.70;;;1.60;;
17614;SDS011;8926;49.720;6.576;2023-07-20T07:34:23;1.57;;;1.47;;
17614;SDS011;8926;49.720;6.576;2023-07-20T07:36:49;1.70;;;1.10;;
17614;SDS011;8926;49.720;6.576;2023-07-20T07:39:15;1.20;;;1.10;;
17614;SDS011;8926;49.720;6.576;2023-07-20T07:41:40;1.27;;;1.17;;
17614;SDS011;8926;49.720;6.576;2023-07-20T07:44:05;1.70;;;1.60;;
17614;SDS011;8926;49.720;6.576;2023-07-20T07:46:31;2.53;;;2.10;;
17614;SDS011;8926;49.720;6.576;2023-07-20T07:48:56;3.77;;;2.10;;
17614;SDS011;8926;49.720;6.576;2023-07-20T07:51:21;2.17;;;1.83;;
17614;SDS011;8926;49.720;6.576;2023-07-20T07:53:47;2.77;;;1.83;;
17614;SDS011;8926;49.720;6.576;2023-07-20T07:56:14;2.47;;;1.83;;
17614;SDS011;8926;49.720;6.576;2023-07-20T07:58:39;1.73;;;1.10;;
17614;SDS011;8926;49.720;6.576;2023-07-20T08:01:05;1.67;;;1.57;;
17614;SDS011;8926;49.720;6.576;2023-07-20T08:03:30;2.00;;;1.60;;
17614;SDS011;8926;49.720;6.576;2023-07-20T08:05:56;1.70;;;1.27;;
17614;SDS011;8926;49.720;6.576;2023-07-20T08:08:22;2.23;;;2.03;;
17614;SDS011;8926;49.720;6.576;2023-07-20T08:10:47;2.43;;;1.43;;
17614;SDS011;8926;49.720;6.576;2023-07-20T08:13:13;1.60;;;1.50;;
17614;SDS011;8926;49.720;6.576;2023-07-20T08:15:38;1.00;;;1.00;;
17614;SDS011;8926;49.720;6.576;2023-07-20T08:18:04;1.43;;;1.33;;
17614;SDS011;8926;49.720;6.576;2023-07-20T08:20:29;2.00;;;1.43;;
17614;SDS011;8926;49.720;6.576;2023-07-20T08:22:55;2.73;;;1.90;;
17614;SDS011;8926;49.720;6.576;2023-07-20T08:25:21;1.80;;;1.70;;
17614;SDS011;8926;49.720;6.576;2023-07-20T08:27:46;1.63;;;1.50;;
17614;SDS011;8926;49.720;6.576;2023-07-20T08:30:12;1.43;;;1.33;;
17614;SDS011;8926;49.720;6.576;2023-07-20T08:32:38;1.33;;;1.23;;
17614;SDS011;8926;49.720;6.576;2023-07-20T08:35:04;1.07;;;0.90;;
17614;SDS011;8926;49.720;6.576;2023-07-20T08:37:30;1.30;;;1.20;;
17614;SDS011;8926;49.720;6.576;2023-07-20T08:39:56;1.03;;;1.00;;
17614;SDS011;8926;49.720;6.576;2023-07-20T08:42:21;2.07;;;1.50;;
17614;SDS011;8926;49.720;6.576;2023-07-20T08:44:47;1.20;;;1.10;;
17614;SDS011;8926;49.720;6.576;2023-07-20T08:47:14;0.70;;;0.70;;
17614;SDS011;8926;49.720;6.576;2023-07-20T08:49:41;1.93;;;1.47;;
17614;SDS011;8926;49.720;6.576;2023-07-20T08:52:08;1.70;;;1.60;;
17614;SDS011;8926;49.720;6.576;2023-07-20T08:54:33;2.03;;;1.53;;
17614;SDS011;8926;49.720;6.576;2023-07-20T08:57:03;2.23;;;1.40;;
17614;SDS011;8926;49.720;6.576;2023-07-20T08:59:29;1.40;;;1.30;;
17614;SDS011;8926;49.720;6.576;2023-07-20T09:01:56;1.27;;;1.17;;
17614;SDS011;8926;49.720;6.576;2023-07-20T09:04:22;2.03;;;1.60;;
17614;SDS011;8926;49.720;6.576;2023-07-20T09:06:49;2.40;;;1.30;;
17614;SDS011;8926;49.720;6.576;2023-07-20T09:09:14;1.83;;;1.50;;
17614;SDS011;8926;49.720;6.576;2023-07-20T09:11:40;1.47;;;1.03;;
17614;SDS011;8926;49.720;6.576;2023-07-20T09:14:06;1.30;;;1.20;;
17614;SDS011;8926;49.720;6.576;2023-07-20T09:16:32;1.53;;;1.20;;
17614;SDS011;8926;49.720;6.576;2023-07-20T09:18:58;1.50;;;1.10;;
17614;SDS011;8926;49.720;6.576;2023-07-20T09:21:23;1.27;;;1.17;;
17614;SDS011;8926;49.720;6.576;2023-07-20T09:23:53;1.50;;;1.40;;
17614;SDS011;8926;49.720;6.576;2023-07-20T09:26:21;1.07;;;0.97;;
17614;SDS011;8926;49.720;6.576;2023-07-20T09:28:47;1.90;;;1.30;;
17614;SDS011;8926;49.720;6.576;2023-07-20T09:31:19;3.00;;;1.73;;
17614;SDS011;8926;49.720;6.576;2023-07-20T09:33:46;1.43;;;1.33;;
17614;SDS011;8926;49.720;6.576;2023-07-20T09:36:12;1.47;;;1.37;;
17614;SDS011;8926;49.720;6.576;2023-07-20T09:38:38;1.00;;;0.90;;
17614;SDS011;8926;49.720;6.576;2023-07-20T09:41:05;1.20;;;1.10;;
17614;SDS011;8926;49.720;6.576;2023-07-20T09:43:31;2.67;;;1.30;;
17614;SDS011;8926;49.720;6.576;2023-07-20T09:45:58;1.40;;;0.93;;
17614;SDS011;8926;49.720;6.576;2023-07-20T09:48:24;1.60;;;1.30;;
17614;SDS011;8926;49.720;6.576;2023-07-20T09:50:51;0.70;;;0.70;;
17614;SDS011;8926;49.720;6.576;2023-07-20T09:53:17;1.27;;;0.77;;
17614;SDS011;8926;49.720;6.576;2023-07-20T09:55:44;1.00;;;0.87;;
17614;SDS011;8926;49.720;6.576;2023-07-20T09:58:10;0.83;;;0.83;;
17614;SDS011;8926;49.720;6.576;2023-07-20T10:00:37;1.20;;;1.10;;
17614;SDS011;8926;49.720;6.576;2023-07-20T10:03:03;1.33;;;0.90;;
17614;SDS011;8926;49.720;6.576;2023-07-20T10:05:36;1.40;;;1.20;;
17614;SDS011;8926;49.720;6.576;2023-07-20T10:08:04;0.80;;;0.80;;
17614;SDS011;8926;49.720;6.576;2023-07-20T10:10:35;1.33;;;1.10;;
17614;SDS011;8926;49.720;6.576;2023-07-20T10:13:01;1.40;;;1.23;;
17614;SDS011;8926;49.720;6.576;2023-07-20T10:15:37;1.63;;;1.47;;
17614;SDS011;8926;49.720;6.576;2023-07-20T10:20:48;1.00;;;1.00;;
17614;SDS011;8926;49.720;6.576;2023-07-20T10:23:16;0.80;;;0.80;;
17614;SDS011;8926;49.720;6.576;2023-07-20T10:25:42;0.80;;;0.70;;
17614;SDS011;8926;49.720;6.576;2023-07-20T10:28:08;0.60;;;0.60;;
17614;SDS011;8926;49.720;6.576;2023-07-20T10:30:35;1.33;;;0.80;;
17614;SDS011;8926;49.720;6.576;2023-07-20T10:33:02;0.67;;;0.67;;
17614;SDS011;8926;49.720;6.576;2023-07-20T10:35:28;0.70;;;0.70;;
17614;SDS011;8926;49.720;6.576;2023-07-20T10:37:54;0.73;;;0.73;;
17614;SDS011;8926;49.720;6.576;2023-07-20T10:40:25;1.00;;;0.90;;
17614;SDS011;8926;49.720;6.576;2023-07-20T10:42:59;0.87;;;0.80;;
17614;SDS011;8926;49.720;6.576;2023-07-20T10:45:33;1.20;;;1.10;;
17614;SDS011;8926;49.720;6.576;2023-07-20T10:48:06;0.60;;;0.60;;
17614;SDS011;8926;49.720;6.576;2023-07-20T10:50:38;1.00;;;0.90;;
17614;SDS011;8926;49.720;6.576;2023-07-20T10:53:10;0.97;;;0.70;;
17614;SDS011;8926;49.720;6.576;2023-07-20T10:55:40;1.10;;;1.00;;
17614;SDS011;8926;49.720;6.576;2023-07-20T11:01:00;1.80;;;1.10;;
17614;SDS011;8926;49.720;6.576;2023-07-20T11:03:27;1.83;;;1.13;;
17614;SDS011;8926;49.720;6.576;2023-07-20T11:05:57;0.80;;;0.80;;
17614;SDS011;8926;49.720;6.576;2023-07-20T11:08:39;1.10;;;1.10;;
17614;SDS011;8926;49.720;6.576;2023-07-20T11:11:21;1.63;;;1.03;;
17614;SDS011;8926;49.720;6.576;2023-07-20T11:14:01;1.00;;;0.90;;
17614;SDS011;8926;49.720;6.576;2023-07-20T11:19:13;1.40;;;1.10;;
17614;SDS011;8926;49.720;6.576;2023-07-20T11:21:40;0.70;;;0.70;;
17614;SDS011;8926;49.720;6.576;2023-07-20T11:24:07;1.33;;;0.90;;
17614;SDS011;8926;49.720;6.576;2023-07-20T11:26:50;1.27;;;1.03;;
17614;SDS011;8926;49.720;6.576;2023-07-20T11:29:20;0.70;;;0.70;;
17614;SDS011;8926;49.720;6.576;2023-07-20T11:31:47;0.80;;;0.80;;
17614;SDS011;8926;49.720;6.576;2023-07-20T11:34:22;1.40;;;1.10;;
17614;SDS011;8926;49.720;6.576;2023-07-20T11:36:48;1.53;;;0.97;;
17614;SDS011;8926;49.720;6.576;2023-07-20T11:39:16;0.60;;;0.60;;
17614;SDS011;8926;49.720;6.576;2023-07-20T11:41:47;0.97;;;0.80;;
17614;SDS011;8926;49.720;6.576;2023-07-20T11:44:17;1.30;;;0.87;;
17614;SDS011;8926;49.720;6.576;2023-07-20T11:46:43;0.97;;;0.97;;
17614;SDS011;8926;49.720;6.576;2023-07-20T11:49:09;0.70;;;0.70;;
17614;SDS011;8926;49.720;6.576;2023-07-20T11:51:35;0.80;;;0.80;;
17614;SDS011;8926;49.720;6.576;2023-07-20T11:54:03;0.87;;;0.73;;
17614;SDS011;8926;49.720;6.576;2023-07-20T11:56:30;0.60;;;0.60;;
17614;SDS011;8926;49.720;6.576;2023-07-20T11:58:56;0.70;;;0.70;;
17614;SDS011;8926;49.720;6.576;2023-07-20T12:01:24;0.83;;;0.83;;
17614;SDS011;8926;49.720;6.576;2023-07-20T12:03:53;0.70;;;0.70;;
17614;SDS011;8926;49.720;6.576;2023-07-20T12:06:22;0.70;;;0.70;;
17614;SDS011;8926;49.720;6.576;2023-07-20T12:08:49;0.60;;;0.60;;
17614;SDS011;8926;49.720;6.576;2023-07-20T12:11:29;1.47;;;0.80;;
17614;SDS011;8926;49.720;6.576;2023-07-20T12:13:57;0.80;;;0.80;;
17614;SDS011;8926;49.720;6.576;2023-07-20T12:16:26;0.40;;;0.40;;
17614;SDS011;8926;49.720;6.576;2023-07-20T12:18:58;0.60;;;0.60;;
17614;SDS011;8926;49.720;6.576;2023-07-20T12:21:24;1.67;;;0.90;;
17614;SDS011;8926;49.720;6.576;2023-07-20T12:23:50;1.30;;;1.20;;
17614;SDS011;8926;49.720;6.576;2023-07-20T12:26:15;0.70;;;0.70;;
17614;SDS011;8926;49.720;6.576;2023-07-20T12:28:40;0.67;;;0.67;;
17614;SDS011;8926;49.720;6.576;2023-07-20T12:31:07;0.80;;;0.80;;
17614;SDS011;8926;49.720;6.576;2023-07-20T12:33:34;0.83;;;0.63;;
17614;SDS011;8926;49.720;6.576;2023-07-20T12:36:00;0.70;;;0.70;;
17614;SDS011;8926;49.720;6.576;2023-07-20T12:38:26;0.90;;;0.87;;
17614;SDS011;8926;49.720;6.576;2023-07-20T12:40:52;1.17;;;0.67;;
17614;SDS011;8926;49.720;6.576;2023-07-20T12:43:20;0.60;;;0.60;;
17614;SDS011;8926;49.720;6.576;2023-07-20T12:45:45;0.57;;;0.50;;
17614;SDS011;8926;49.720;6.576;2023-07-20T12:48:10;0.50;;;0.50;;
17614;SDS011;8926;49.720;6.576;2023-07-20T12:50:36;0.40;;;0.40;;
17614;SDS011;8926;49.720;6.576;2023-07-20T12:53:01;0.50;;;0.50;;
17614;SDS011;8926;49.720;6.576;2023-07-20T12:55:28;0.30;;;0.30;;
17614;SDS011;8926;49.720;6.576;2023-07-20T12:57:54;0.40;;;0.40;;
17614;SDS011;8926;49.720;6.576;2023-07-20T13:00:20;0.50;;;0.50;;
17614;SDS011;8926;49.720;6.576;2023-07-20T13:02:47;0.50;;;0.50;;
17614;SDS011;8926;49.720;6.576;2023-07-20T13:05:13;1.07;;;0.63;;
17614;SDS011;8926;49.720;6.576;2023-07-20T13:07:39;0.40;;;0.40;;
17614;SDS011;8926;49.720;6.576;2023-07-20T13:10:04;0.53;;;0.53;;
17614;SDS011;8926;49.720;6.576;2023-07-20T13:12:31;0.63;;;0.63;;
17614;SDS011;8926;49.720;6.576;2023-07-20T13:14:58;0.60;;;0.60;;
17614;SDS011;8926;49.720;6.576;2023-07-20T13:17:27;0.50;;;0.50;;
17614;SDS011;8926;49.720;6.576;2023-07-20T13:19:54;0.63;;;0.63;;
17614;SDS011;8926;49.720;6.576;2023-07-20T13:22:19;0.43;;;0.43;;
17614;SDS011;8926;49.720;6.576;2023-07-20T13:24:45;0.30;;;0.30;;
17614;SDS011;8926;49.720;6.576;2023-07-20T13:27:14;0.50;;;0.50;;
17614;SDS011;8926;49.720;6.576;2023-07-20T13:29:40;1.10;;;0.60;;
17614;SDS011;8926;49.720;6.576;2023-07-20T13:32:06;0.70;;;0.70;;
17614;SDS011;8926;49.720;6.576;2023-07-20T13:34:32;0.40;;;0.40;;
17614;SDS011;8926;49.720;6.576;2023-07-20T13:36:57;0.47;;;0.47;;
17614;SDS011;8926;49.720;6.576;2023-07-20T13:39:23;0.93;;;0.63;;
17614;SDS011;8926;49.720;6.576;2023-07-20T13:41:51;0.50;;;0.50;;
17614;SDS011;8926;49.720;6.576;2023-07-20T13:44:16;0.50;;;0.50;;
17614;SDS011;8926;49.720;6.576;2023-07-20T13:46:41;1.70;;;0.40;;
17614;SDS011;8926;49.720;6.576;2023-07-20T13:49:07;0.47;;;0.47;;
17614;SDS011;8926;49.720;6.576;2023-07-20T13:51:32;0.30;;;0.30;;
17614;SDS011;8926;49.720;6.576;2023-07-20T13:53:57;0.43;;;0.43;;
17614;SDS011;8926;49.720;6.576;2023-07-20T13:56:23;0.70;;;0.70;;
17614;SDS011;8926;49.720;6.576;2023-07-20T13:58:49;0.93;;;0.60;;
17614;SDS011;8926;49.720;6.576;2023-07-20T14:01:15;0.40;;;0.40;;
17614;SDS011;8926;49.720;6.576;2023-07-20T14:03:41;1.30;;;0.77;;
17614;SDS011;8926;49.720;6.576;2023-07-20T14:06:06;0.60;;;0.60;;
17614;SDS011;8926;49.720;6.576;2023-07-20T14:08:31;0.60;;;0.43;;
17614;SDS011;8926;49.720;6.576;2023-07-20T14:10:57;0.43;;;0.40;;
17614;SDS011;8926;49.720;6.576;2023-07-20T14:13:23;0.40;;;0.40;;
17614;SDS011;8926;49.720;6.576;2023-07-20T14:15:48;0.40;;;0.40;;
17614;SDS011;8926;49.720;6.576;2023-07-20T14:18:15;0.57;;;0.57;;
17614;SDS011;8926;49.720;6.576;2023-07-20T14:20:40;0.47;;;0.47;;
17614;SDS011;8926;49.720;6.576;2023-07-20T14:23:06;0.50;;;0.47;;
17614;SDS011;8926;49.720;6.576;2023-07-20T14:25:31;0.70;;;0.70;;
17614;SDS011;8926;49.720;6.576;2023-07-20T14:27:58;0.40;;;0.40;;
17614;SDS011;8926;49.720;6.576;2023-07-20T14:30:23;0.70;;;0.70;;
17614;SDS011;8926;49.720;6.576;2023-07-20T14:32:49;0.63;;;0.50;;
17614;SDS011;8926;49.720;6.576;2023-07-20T14:35:14;0.47;;;0.47;;
17614;SDS011;8926;49.720;6.576;2023-07-20T14:37:39;0.40;;;0.40;;
17614;SDS011;8926;49.720;6.576;2023-07-20T14:40:05;0.47;;;0.47;;
17614;SDS011;8926;49.720;6.576;2023-07-20T14:42:31;0.63;;;0.50;;
17614;SDS011;8926;49.720;6.576;2023-07-20T14:44:57;0.50;;;0.50;;
17614;SDS011;8926;49.720;6.576;2023-07-20T14:47:22;0.60;;;0.50;;
17614;SDS011;8926;49.720;6.576;2023-07-20T14:49:48;0.60;;;0.60;;
17614;SDS011;8926;49.720;6.576;2023-07-20T14:52:13;0.70;;;0.70;;
17614;SDS011;8926;49.720;6.576;2023-07-20T14:54:38;0.73;;;0.60;;
17614;SDS011;8926;49.720;6.576;2023-07-20T14:57:04;0.50;;;0.50;;
17614;SDS011;8926;49.720;6.576;2023-07-20T14:59:29;0.50;;;0.50;;
17614;SDS011;8926;49.720;6.576;2023-07-20T15:01:55;0.53;;;0.53;;
17614;SDS011;8926;49.720;6.576;2023-07-20T15:04:20;0.50;;;0.50;;
17614;SDS011;8926;49.720;6.576;2023-07-20T15:06:45;0.43;;;0.43;;
17614;SDS011;8926;49.720;6.576;2023-07-20T15:09:11;0.40;;;0.40;;
17614;SDS011;8926;49.720;6.576;2023-07-20T15:11:36;0.63;;;0.63;;
17614;SDS011;8926;49.720;6.576;2023-07-20T15:14:02;0.70;;;0.70;;